Terminal Aerodrome Forecast
Issued by NWS

Current Version | Previous Version | Text Only | Print | Product List | Glossary On
Versions: 1 2 3 4 5 6 7 8 9 10 11 12 13 14
980
FTUS45 KRIW 241720
TAFJAC
TAF
KJAC 241720Z 2418/2518 19007KT P6SM VCSH SCT020 BKN035
     FM250300 VRB05KT P6SM SCT030 BKN050
     FM251500 19008KT P6SM SCT050 BKN100
      AMD LTD TO CLD VIS AND WIND=

USA.gov is the U.S. government's official web portal to all federal, state and local government web resources and services.